Terminal Aerodrome Forecast
Issued by NWS

Home | Current Version | Previous Version | Text Only | Print | Product List | Glossary On
Versions: 1 2 3 4 5 6 7 8 9 10 11 12 13 14 15 16 17 18
000
FTAK31 PAJN 220500 CCA
TAFAGY
TAF COR
PAGY 220558Z 2206/2306 21021G36KT P6SM VCSH FEW025 OVC050
     FM220900 21030G45KT P6SM VCSH OVC060
     FM221300 21020G35KT P6SM VCSH OVC060
     FM221900 21016G25KT P6SM VCSH OVC050
     FM222100 21015KT P6SM VCSH OVC040
      AMD LTD TO CLD VIS AND WIND=

USA.gov is the U.S. government's official web portal to all federal, state and local government web resources and services.